sensor_id;sensor_type;location;lat;lon;timestamp;pressure;altitude;pressure_sealevel;temperature;humidity
31162;BME280;17796;49.296;-117.656;2023-01-28T00:10:30;96200;;;2.04618;70.14618
31162;BME280;17796;49.296;-117.656;2023-01-28T00:25:34;96200;;;1.94011;68.85129
31162;BME280;17796;49.296;-117.656;2023-01-28T00:40:37;96200;;;1.56443;70.78488
31162;BME280;17796;49.296;-117.656;2023-01-28T00:55:41;96200;;;0.84546;72.1483
31162;BME280;17796;49.296;-117.656;2023-01-28T01:10:45;96200;;;0.35831;74.2482
31162;BME280;17796;49.296;-117.656;2023-01-28T01:25:48;96100;;;-0.07548;76.90379
31162;BME280;17796;49.296;-117.656;2023-01-28T01:40:54;96100;;;0.63491;73.47289
31162;BME280;17796;49.296;-117.656;2023-01-28T01:56:00;96200;;;-0.06881;74.9433
31162;BME280;17796;49.296;-117.656;2023-01-28T02:11:07;96200;;;0.89023;70.79235
31162;BME280;17796;49.296;-117.656;2023-01-28T02:26:33;96200;;;0.45453;72.62547
31162;BME280;17796;49.296;-117.656;2023-01-28T02:41:55;96200;;;0.69715;72.10329
31162;BME280;17796;49.296;-117.656;2023-01-28T02:57:06;96200;;;0.71557;71.66644
31162;BME280;17796;49.296;-117.656;2023-01-28T03:12:21;96200;;;0.76448;70.91402
31162;BME280;17796;49.296;-117.656;2023-01-28T03:27:28;96200;;;-0.00085;73.69758
31162;BME280;17796;49.296;-117.656;2023-01-28T03:42:37;96200;;;0.37927;73.04615
31162;BME280;17796;49.296;-117.656;2023-01-28T03:57:41;96300;;;0.52027;73.17299
31162;BME280;17796;49.296;-117.656;2023-01-28T04:12:45;96300;;;0.13157;78.43622
31162;BME280;17796;49.296;-117.656;2023-01-28T04:27:49;96300;;;0.91183;73.98952
31162;BME280;17796;49.296;-117.656;2023-01-28T04:42:53;96300;;;0.70541;77.55104
31162;BME280;17796;49.296;-117.656;2023-01-28T04:57:57;96300;;;0.77305;76.26606
31162;BME280;17796;49.296;-117.656;2023-01-28T05:13:01;96300;;;-0.39177;88.98314
31162;BME280;17796;49.296;-117.656;2023-01-28T05:28:05;96300;;;-0.05071;86.45523
31162;BME280;17796;49.296;-117.656;2023-01-28T05:43:08;96300;;;0.46787;83.63508
31162;BME280;17796;49.296;-117.656;2023-01-28T05:58:12;96300;;;1.21066;79.72836
31162;BME280;17796;49.296;-117.656;2023-01-28T06:13:16;96300;;;0.06393;81.36603
31162;BME280;17796;49.296;-117.656;2023-01-28T06:28:20;96300;;;0.23891;79.41881
31162;BME280;17796;49.296;-117.656;2023-01-28T06:43:25;96300;;;0.03948;82.82517
31162;BME280;17796;49.296;-117.656;2023-01-28T06:58:30;96300;;;0.48915;78.76051
31162;BME280;17796;49.296;-117.656;2023-01-28T07:13:33;96300;;;0.24558;79.21194
31162;BME280;17796;49.296;-117.656;2023-01-28T07:28:38;96300;;;-0.65376;81.7653
31162;BME280;17796;49.296;-117.656;2023-01-28T07:43:42;96300;;;-0.23108;80.58844
31162;BME280;17796;49.296;-117.656;2023-01-28T07:58:49;96300;;;-1.07929;83.73283
31162;BME280;17796;49.296;-117.656;2023-01-28T08:13:52;96300;;;-0.11232;80.22418
31162;BME280;17796;49.296;-117.656;2023-01-28T08:28:56;96300;;;0.19477;79.36529
31162;BME280;17796;49.296;-117.656;2023-01-28T08:44:01;96300;;;0.48216;79.14236
31162;BME280;17796;49.296;-117.656;2023-01-28T08:59:05;96300;;;0.32497;79.37271
31162;BME280;17796;49.296;-117.656;2023-01-28T09:14:09;96300;;;-0.18472;81.88542
31162;BME280;17796;49.296;-117.656;2023-01-28T09:29:13;96300;;;-0.99069;85.22684
31162;BME280;17796;49.296;-117.656;2023-01-28T09:44:22;96400;;;-0.05547;80.62272
31162;BME280;17796;49.296;-117.656;2023-01-28T09:59:38;96400;;;0.01503;79.58218
31162;BME280;17796;49.296;-117.656;2023-01-28T10:14:49;96400;;;-0.67535;82.16052
31162;BME280;17796;49.296;-117.656;2023-01-28T10:30:15;96400;;;-0.16249;79.03526
31162;BME280;17796;49.296;-117.656;2023-01-28T10:45:22;96400;;;0.14904;79.40447
31162;BME280;17796;49.296;-117.656;2023-01-28T11:00:29;96400;;;-0.23299;80.6973
31162;BME280;17796;49.296;-117.656;2023-01-28T11:15:45;96400;;;0.35609;78.21207
31162;BME280;17796;49.296;-117.656;2023-01-28T11:30:51;96400;;;0.3653;75.96627
31162;BME280;17796;49.296;-117.656;2023-01-28T11:46:03;96400;;;0.02233;77.28434
31162;BME280;17796;49.296;-117.656;2023-01-28T12:01:20;96400;;;0.22525;76.2323
31162;BME280;17796;49.296;-117.656;2023-01-28T12:16:37;96400;;;-0.0053;76.8885
31162;BME280;17796;49.296;-117.656;2023-01-28T12:31:55;96500;;;-0.05103;77.25012
31162;BME280;17796;49.296;-117.656;2023-01-28T12:47:12;96500;;;-0.38828;77.60025
31162;BME280;17796;49.296;-117.656;2023-01-28T13:02:23;96500;;;-0.38796;76.43798
31162;BME280;17796;49.296;-117.656;2023-01-28T13:17:32;96500;;;-0.32699;75.18246
31162;BME280;17796;49.296;-117.656;2023-01-28T13:32:35;96500;;;-1.28316;79.59401
31162;BME280;17796;49.296;-117.656;2023-01-28T13:47:39;96500;;;-0.24379;74.41973
31162;BME280;17796;49.296;-117.656;2023-01-28T14:03:25;96500;;;-0.52768;74.83697
31162;BME280;17796;49.296;-117.656;2023-01-28T14:18:52;96500;;;-0.65534;74.59096
31162;BME280;17796;49.296;-117.656;2023-01-28T14:34:05;96500;;;-0.5388;73.47109
31162;BME280;17796;49.296;-117.656;2023-01-28T14:49:19;96600;;;-0.8516;75.36446
31162;BME280;17796;49.296;-117.656;2023-01-28T15:04:33;96600;;;-1.75822;81.01339
31162;BME280;17796;49.296;-117.656;2023-01-28T15:19:36;96600;;;-0.68583;78.03529
31162;BME280;17796;49.296;-117.656;2023-01-28T15:34:44;96600;;;-0.67217;76.18257
31162;BME280;17796;49.296;-117.656;2023-01-28T15:49:49;96600;;;-0.55023;75.41349
31162;BME280;17796;49.296;-117.656;2023-01-28T16:04:56;96600;;;-1.17932;81.03005
31162;BME280;17796;49.296;-117.656;2023-01-28T16:20:01;96700;;;-1.06087;65.06572
31162;BME280;17796;49.296;-117.656;2023-01-28T16:35:14;96700;;;-3.27676;65.28734
31162;BME280;17796;49.296;-117.656;2023-01-28T16:50:19;96700;;;-3.78135;64.12277
31162;BME280;17796;49.296;-117.656;2023-01-28T17:05:23;96800;;;-3.97442;67.15584
31162;BME280;17796;49.296;-117.656;2023-01-28T17:20:27;96800;;;-4.4139;67.70373
31162;BME280;17796;49.296;-117.656;2023-01-28T17:35:30;96900;;;-4.47297;67.47712
31162;BME280;17796;49.296;-117.656;2023-01-28T17:50:35;97000;;;-3.52858;68.4973
31162;BME280;17796;49.296;-117.656;2023-01-28T18:05:41;97000;;;-5.77839;78.38445
31162;BME280;17796;49.296;-117.656;2023-01-28T18:20:45;97000;;;-6.48873;85.08037
31162;BME280;17796;49.296;-117.656;2023-01-28T18:35:57;97100;;;-6.32361;81.83991
31162;BME280;17796;49.296;-117.656;2023-01-28T18:51:00;97100;;;-5.16903;70.97858
31162;BME280;17796;49.296;-117.656;2023-01-28T19:06:05;97100;;;-4.1605;79.55188
31162;BME280;17796;49.296;-117.656;2023-01-28T19:21:10;97100;;;-2.10182;71.3392
31162;BME280;17796;49.296;-117.656;2023-01-28T19:36:13;97100;;;-2.98652;71.80455
31162;BME280;17796;49.296;-117.656;2023-01-28T19:51:17;97100;;;-1.66581;67.2469
31162;BME280;17796;49.296;-117.656;2023-01-28T20:06:22;97100;;;-0.16122;62.75203
31162;BME280;17796;49.296;-117.656;2023-01-28T20:21:27;97100;;;-0.24093;62.27023
31162;BME280;17796;49.296;-117.656;2023-01-28T20:36:31;97100;;;0.12903;60.38202
31162;BME280;17796;49.296;-117.656;2023-01-28T20:51:35;97100;;;-0.57056;59.4883
31162;BME280;17796;49.296;-117.656;2023-01-28T21:06:39;97100;;;-0.49879;56.15073
31162;BME280;17796;49.296;-117.656;2023-01-28T21:21:43;97100;;;-1.07643;55.19244
31162;BME280;17796;49.296;-117.656;2023-01-28T21:36:46;97100;;;-0.59882;52.07159
31162;BME280;17796;49.296;-117.656;2023-01-28T21:51:50;97100;;;-0.79317;53.28916
31162;BME280;17796;49.296;-117.656;2023-01-28T22:06:54;97200;;;-0.80301;52.07526
31162;BME280;17796;49.296;-117.656;2023-01-28T22:21:58;97200;;;-0.14947;52.48914
31162;BME280;17796;49.296;-117.656;2023-01-28T22:37:02;97200;;;-1.53117;46.38068
31162;BME280;17796;49.296;-117.656;2023-01-28T22:52:05;97200;;;-3.80643;42.53454
31162;BME280;17796;49.296;-117.656;2023-01-28T23:07:09;97200;;;-4.44026;41.66769
31162;BME280;17796;49.296;-117.656;2023-01-28T23:22:14;97300;;;-4.23576;43.6424
31162;BME280;17796;49.296;-117.656;2023-01-28T23:37:22;97300;;;-3.98998;42.86523
31162;BME280;17796;49.296;-117.656;2023-01-28T23:52:26;97300;;;-3.9614;42.52678
